sensor_id;sensor_type;location;lat;lon;timestamp;P1;durP1;ratioP1;P2;durP2;ratioP2
24635;SDS011;12772;49.794;10.024;2024-03-02T00:01:19;19.27;;;14.77;;
24635;SDS011;12772;49.794;10.024;2024-03-02T00:05:22;18.85;;;15.63;;
24635;SDS011;12772;49.794;10.024;2024-03-02T00:09:24;19.38;;;15.75;;
24635;SDS011;12772;49.794;10.024;2024-03-02T00:13:26;18.88;;;15.60;;
24635;SDS011;12772;49.794;10.024;2024-03-02T00:17:28;17.25;;;14.85;;
24635;SDS011;12772;49.794;10.024;2024-03-02T00:21:30;18.20;;;14.38;;
24635;SDS011;12772;49.794;10.024;2024-03-02T00:25:43;18.80;;;15.45;;
24635;SDS011;12772;49.794;10.024;2024-03-02T00:29:47;18.88;;;15.20;;
24635;SDS011;12772;49.794;10.024;2024-03-02T00:33:49;19.90;;;15.75;;
24635;SDS011;12772;49.794;10.024;2024-03-02T00:37:51;18.23;;;14.32;;
24635;SDS011;12772;49.794;10.024;2024-03-02T00:41:53;19.35;;;15.75;;
24635;SDS011;12772;49.794;10.024;2024-03-02T00:45:55;18.15;;;14.70;;
24635;SDS011;12772;49.794;10.024;2024-03-02T00:49:57;16.98;;;13.82;;
24635;SDS011;12772;49.794;10.024;2024-03-02T00:54:01;20.55;;;15.75;;
24635;SDS011;12772;49.794;10.024;2024-03-02T00:58:06;17.85;;;14.05;;
24635;SDS011;12772;49.794;10.024;2024-03-02T01:02:08;17.48;;;14.20;;
24635;SDS011;12772;49.794;10.024;2024-03-02T01:06:10;16.48;;;13.32;;
24635;SDS011;12772;49.794;10.024;2024-03-02T01:10:12;14.48;;;12.98;;
24635;SDS011;12772;49.794;10.024;2024-03-02T01:14:14;15.07;;;12.55;;
24635;SDS011;12772;49.794;10.024;2024-03-02T01:18:16;15.75;;;13.32;;
24635;SDS011;12772;49.794;10.024;2024-03-02T01:22:18;18.33;;;15.00;;
24635;SDS011;12772;49.794;10.024;2024-03-02T01:26:25;15.98;;;13.52;;
24635;SDS011;12772;49.794;10.024;2024-03-02T01:30:27;18.42;;;14.05;;
24635;SDS011;12772;49.794;10.024;2024-03-02T01:34:29;18.27;;;16.15;;
24635;SDS011;12772;49.794;10.024;2024-03-02T01:38:31;19.45;;;15.80;;
24635;SDS011;12772;49.794;10.024;2024-03-02T01:42:35;17.80;;;13.48;;
24635;SDS011;12772;49.794;10.024;2024-03-02T01:46:38;17.20;;;14.95;;
24635;SDS011;12772;49.794;10.024;2024-03-02T01:50:40;17.00;;;14.30;;
24635;SDS011;12772;49.794;10.024;2024-03-02T01:54:42;15.43;;;13.00;;
24635;SDS011;12772;49.794;10.024;2024-03-02T01:58:44;17.25;;;13.82;;
24635;SDS011;12772;49.794;10.024;2024-03-02T02:02:46;14.93;;;13.30;;
24635;SDS011;12772;49.794;10.024;2024-03-02T02:06:50;15.20;;;13.60;;
24635;SDS011;12772;49.794;10.024;2024-03-02T02:10:52;17.73;;;14.65;;
24635;SDS011;12772;49.794;10.024;2024-03-02T02:14:54;16.20;;;14.35;;
24635;SDS011;12772;49.794;10.024;2024-03-02T02:18:56;16.02;;;13.77;;
24635;SDS011;12772;49.794;10.024;2024-03-02T02:23:03;15.43;;;13.05;;
24635;SDS011;12772;49.794;10.024;2024-03-02T02:27:08;18.15;;;14.82;;
24635;SDS011;12772;49.794;10.024;2024-03-02T02:31:11;16.40;;;13.05;;
24635;SDS011;12772;49.794;10.024;2024-03-02T02:35:13;16.73;;;14.80;;
24635;SDS011;12772;49.794;10.024;2024-03-02T02:39:15;15.23;;;13.27;;
24635;SDS011;12772;49.794;10.024;2024-03-02T02:43:19;17.63;;;14.55;;
24635;SDS011;12772;49.794;10.024;2024-03-02T02:47:21;16.40;;;14.02;;
24635;SDS011;12772;49.794;10.024;2024-03-02T02:51:23;14.60;;;13.02;;
24635;SDS011;12772;49.794;10.024;2024-03-02T02:55:26;14.43;;;12.90;;
24635;SDS011;12772;49.794;10.024;2024-03-02T02:59:28;14.65;;;13.00;;
24635;SDS011;12772;49.794;10.024;2024-03-02T03:03:30;15.88;;;13.25;;
24635;SDS011;12772;49.794;10.024;2024-03-02T03:07:32;14.98;;;12.70;;
24635;SDS011;12772;49.794;10.024;2024-03-02T03:11:36;14.20;;;12.63;;
24635;SDS011;12772;49.794;10.024;2024-03-02T03:15:38;17.95;;;13.38;;
24635;SDS011;12772;49.794;10.024;2024-03-02T03:19:40;15.38;;;13.23;;
24635;SDS011;12772;49.794;10.024;2024-03-02T03:23:42;15.07;;;13.18;;
24635;SDS011;12772;49.794;10.024;2024-03-02T03:27:44;16.63;;;14.23;;
24635;SDS011;12772;49.794;10.024;2024-03-02T03:31:46;14.57;;;12.75;;
24635;SDS011;12772;49.794;10.024;2024-03-02T03:35:48;14.05;;;12.35;;
24635;SDS011;12772;49.794;10.024;2024-03-02T03:39:50;14.40;;;12.32;;
24635;SDS011;12772;49.794;10.024;2024-03-02T03:43:52;14.90;;;13.35;;
24635;SDS011;12772;49.794;10.024;2024-03-02T03:47:55;14.82;;;13.32;;
24635;SDS011;12772;49.794;10.024;2024-03-02T03:51:57;13.98;;;11.82;;
24635;SDS011;12772;49.794;10.024;2024-03-02T03:55:59;14.13;;;12.65;;
24635;SDS011;12772;49.794;10.024;2024-03-02T04:00:01;14.88;;;12.95;;
24635;SDS011;12772;49.794;10.024;2024-03-02T04:04:03;14.63;;;13.13;;
24635;SDS011;12772;49.794;10.024;2024-03-02T04:08:05;14.18;;;12.70;;
24635;SDS011;12772;49.794;10.024;2024-03-02T04:12:10;14.32;;;12.82;;
24635;SDS011;12772;49.794;10.024;2024-03-02T04:16:13;14.45;;;12.90;;
24635;SDS011;12772;49.794;10.024;2024-03-02T04:20:15;14.70;;;13.07;;
24635;SDS011;12772;49.794;10.024;2024-03-02T04:24:17;14.50;;;12.90;;
24635;SDS011;12772;49.794;10.024;2024-03-02T04:28:19;15.23;;;13.63;;
24635;SDS011;12772;49.794;10.024;2024-03-02T04:32:21;13.55;;;12.15;;
24635;SDS011;12772;49.794;10.024;2024-03-02T04:36:23;15.55;;;13.60;;
24635;SDS011;12772;49.794;10.024;2024-03-02T04:40:25;13.07;;;11.68;;
24635;SDS011;12772;49.794;10.024;2024-03-02T04:44:27;12.75;;;11.45;;
24635;SDS011;12772;49.794;10.024;2024-03-02T04:48:29;14.70;;;12.70;;
24635;SDS011;12772;49.794;10.024;2024-03-02T04:52:31;13.90;;;12.32;;
24635;SDS011;12772;49.794;10.024;2024-03-02T04:56:33;15.70;;;13.23;;
24635;SDS011;12772;49.794;10.024;2024-03-02T05:00:44;15.85;;;13.27;;
24635;SDS011;12772;49.794;10.024;2024-03-02T05:04:47;13.75;;;12.32;;
24635;SDS011;12772;49.794;10.024;2024-03-02T05:08:49;14.88;;;13.30;;
24635;SDS011;12772;49.794;10.024;2024-03-02T05:12:51;15.10;;;13.50;;
24635;SDS011;12772;49.794;10.024;2024-03-02T05:17:00;15.43;;;12.70;;
24635;SDS011;12772;49.794;10.024;2024-03-02T05:21:03;14.05;;;12.52;;
24635;SDS011;12772;49.794;10.024;2024-03-02T05:25:05;16.67;;;12.85;;
24635;SDS011;12772;49.794;10.024;2024-03-02T05:29:10;15.00;;;13.00;;
24635;SDS011;12772;49.794;10.024;2024-03-02T05:33:12;14.50;;;12.82;;
24635;SDS011;12772;49.794;10.024;2024-03-02T05:37:14;17.08;;;13.93;;
24635;SDS011;12772;49.794;10.024;2024-03-02T05:41:16;17.05;;;13.80;;
24635;SDS011;12772;49.794;10.024;2024-03-02T05:45:18;15.93;;;13.80;;
24635;SDS011;12772;49.794;10.024;2024-03-02T05:49:20;15.32;;;12.88;;
24635;SDS011;12772;49.794;10.024;2024-03-02T05:53:22;13.98;;;12.52;;
24635;SDS011;12772;49.794;10.024;2024-03-02T05:57:24;15.20;;;13.10;;
24635;SDS011;12772;49.794;10.024;2024-03-02T06:01:46;17.02;;;13.30;;
24635;SDS011;12772;49.794;10.024;2024-03-02T06:05:48;14.05;;;12.55;;
24635;SDS011;12772;49.794;10.024;2024-03-02T06:09:51;13.75;;;12.32;;
24635;SDS011;12772;49.794;10.024;2024-03-02T06:13:53;14.43;;;12.35;;
24635;SDS011;12772;49.794;10.024;2024-03-02T06:17:55;13.43;;;12.02;;
24635;SDS011;12772;49.794;10.024;2024-03-02T06:21:57;15.55;;;12.40;;
24635;SDS011;12772;49.794;10.024;2024-03-02T06:25:59;14.90;;;13.07;;
24635;SDS011;12772;49.794;10.024;2024-03-02T06:30:01;15.35;;;13.27;;
24635;SDS011;12772;49.794;10.024;2024-03-02T06:34:04;17.08;;;13.63;;
24635;SDS011;12772;49.794;10.024;2024-03-02T06:38:06;16.33;;;13.95;;
24635;SDS011;12772;49.794;10.024;2024-03-02T06:42:08;17.00;;;13.93;;
24635;SDS011;12772;49.794;10.024;2024-03-02T06:46:10;16.60;;;13.55;;
24635;SDS011;12772;49.794;10.024;2024-03-02T06:50:15;16.55;;;14.25;;
24635;SDS011;12772;49.794;10.024;2024-03-02T06:54:17;18.67;;;13.50;;
24635;SDS011;12772;49.794;10.024;2024-03-02T06:58:19;15.90;;;13.38;;
24635;SDS011;12772;49.794;10.024;2024-03-02T07:02:21;16.10;;;14.25;;
24635;SDS011;12772;49.794;10.024;2024-03-02T07:06:23;16.65;;;14.38;;
24635;SDS011;12772;49.794;10.024;2024-03-02T07:10:25;15.65;;;13.68;;
24635;SDS011;12772;49.794;10.024;2024-03-02T07:14:27;14.38;;;12.88;;
24635;SDS011;12772;49.794;10.024;2024-03-02T07:18:57;18.42;;;14.65;;
24635;SDS011;12772;49.794;10.024;2024-03-02T07:22:59;16.30;;;13.98;;
24635;SDS011;12772;49.794;10.024;2024-03-02T07:27:01;15.52;;;13.93;;
24635;SDS011;12772;49.794;10.024;2024-03-02T07:31:04;16.48;;;13.32;;
24635;SDS011;12772;49.794;10.024;2024-03-02T07:35:06;14.18;;;12.70;;
24635;SDS011;12772;49.794;10.024;2024-03-02T07:39:08;15.40;;;13.75;;
24635;SDS011;12772;49.794;10.024;2024-03-02T07:43:11;14.43;;;12.75;;
24635;SDS011;12772;49.794;10.024;2024-03-02T07:47:13;13.80;;;12.43;;
24635;SDS011;12772;49.794;10.024;2024-03-02T07:51:15;13.90;;;12.40;;
24635;SDS011;12772;49.794;10.024;2024-03-02T07:55:17;15.55;;;13.95;;
24635;SDS011;12772;49.794;10.024;2024-03-02T07:59:19;16.00;;;13.93;;
24635;SDS011;12772;49.794;10.024;2024-03-02T08:03:22;19.48;;;16.25;;
24635;SDS011;12772;49.794;10.024;2024-03-02T08:07:24;13.98;;;12.50;;
24635;SDS011;12772;49.794;10.024;2024-03-02T08:11:26;14.43;;;12.85;;
24635;SDS011;12772;49.794;10.024;2024-03-02T08:15:29;14.65;;;13.05;;
24635;SDS011;12772;49.794;10.024;2024-03-02T08:19:31;14.30;;;12.80;;
24635;SDS011;12772;49.794;10.024;2024-03-02T08:23:34;15.30;;;13.15;;
24635;SDS011;12772;49.794;10.024;2024-03-02T08:27:36;13.27;;;11.88;;
24635;SDS011;12772;49.794;10.024;2024-03-02T08:31:39;14.40;;;12.85;;
24635;SDS011;12772;49.794;10.024;2024-03-02T08:35:41;13.45;;;12.00;;
24635;SDS011;12772;49.794;10.024;2024-03-02T08:39:44;14.15;;;12.65;;
24635;SDS011;12772;49.794;10.024;2024-03-02T08:43:46;12.88;;;11.57;;
24635;SDS011;12772;49.794;10.024;2024-03-02T08:47:48;14.05;;;12.02;;
24635;SDS011;12772;49.794;10.024;2024-03-02T08:51:50;13.00;;;11.70;;
24635;SDS011;12772;49.794;10.024;2024-03-02T08:55:55;14.40;;;12.75;;
24635;SDS011;12772;49.794;10.024;2024-03-02T08:59:57;14.45;;;12.50;;
24635;SDS011;12772;49.794;10.024;2024-03-02T09:03:59;13.90;;;12.40;;
24635;SDS011;12772;49.794;10.024;2024-03-02T09:08:01;12.95;;;11.60;;
24635;SDS011;12772;49.794;10.024;2024-03-02T09:12:04;14.63;;;12.75;;
24635;SDS011;12772;49.794;10.024;2024-03-02T09:16:07;14.07;;;12.18;;
24635;SDS011;12772;49.794;10.024;2024-03-02T09:20:11;14.32;;;12.38;;
24635;SDS011;12772;49.794;10.024;2024-03-02T09:24:14;14.20;;;12.70;;
24635;SDS011;12772;49.794;10.024;2024-03-02T09:28:16;13.98;;;12.50;;
24635;SDS011;12772;49.794;10.024;2024-03-02T09:32:18;12.65;;;11.38;;
24635;SDS011;12772;49.794;10.024;2024-03-02T09:36:21;13.63;;;11.73;;
24635;SDS011;12772;49.794;10.024;2024-03-02T09:40:26;12.38;;;10.88;;
24635;SDS011;12772;49.794;10.024;2024-03-02T09:44:30;15.00;;;12.07;;
24635;SDS011;12772;49.794;10.024;2024-03-02T09:48:32;12.40;;;11.10;;
24635;SDS011;12772;49.794;10.024;2024-03-02T09:52:34;13.05;;;11.68;;
24635;SDS011;12772;49.794;10.024;2024-03-02T09:56:38;12.57;;;11.32;;
24635;SDS011;12772;49.794;10.024;2024-03-02T10:00:40;12.52;;;11.07;;
24635;SDS011;12772;49.794;10.024;2024-03-02T10:04:42;12.35;;;11.05;;
24635;SDS011;12772;49.794;10.024;2024-03-02T10:08:45;13.07;;;11.77;;
24635;SDS011;12772;49.794;10.024;2024-03-02T10:12:48;12.40;;;11.23;;
24635;SDS011;12772;49.794;10.024;2024-03-02T10:17:07;12.77;;;11.27;;
24635;SDS011;12772;49.794;10.024;2024-03-02T10:21:13;11.15;;;10.05;;
24635;SDS011;12772;49.794;10.024;2024-03-02T10:25:28;16.80;;;10.60;;
24635;SDS011;12772;49.794;10.024;2024-03-02T10:29:34;11.70;;;10.50;;
24635;SDS011;12772;49.794;10.024;2024-03-02T10:33:38;10.93;;;9.93;;
24635;SDS011;12772;49.794;10.024;2024-03-02T10:37:41;10.52;;;9.50;;
24635;SDS011;12772;49.794;10.024;2024-03-02T10:41:43;10.73;;;9.63;;
24635;SDS011;12772;49.794;10.024;2024-03-02T10:45:47;11.02;;;9.93;;
24635;SDS011;12772;49.794;10.024;2024-03-02T10:49:51;10.68;;;9.13;;
24635;SDS011;12772;49.794;10.024;2024-03-02T10:53:54;10.00;;;9.02;;
24635;SDS011;12772;49.794;10.024;2024-03-02T10:57:56;9.32;;;8.43;;
24635;SDS011;12772;49.794;10.024;2024-03-02T11:02:03;9.18;;;8.30;;
24635;SDS011;12772;49.794;10.024;2024-03-02T11:06:07;9.20;;;8.40;;
24635;SDS011;12772;49.794;10.024;2024-03-02T11:10:11;9.55;;;8.55;;
24635;SDS011;12772;49.794;10.024;2024-03-02T11:14:14;8.07;;;7.38;;
24635;SDS011;12772;49.794;10.024;2024-03-02T11:18:18;9.02;;;8.23;;
24635;SDS011;12772;49.794;10.024;2024-03-02T11:22:20;9.13;;;7.65;;
24635;SDS011;12772;49.794;10.024;2024-03-02T11:26:23;8.40;;;7.60;;
24635;SDS011;12772;49.794;10.024;2024-03-02T11:34:38;7.10;;;6.28;;
24635;SDS011;12772;49.794;10.024;2024-03-02T11:38:45;8.45;;;6.40;;
24635;SDS011;12772;49.794;10.024;2024-03-02T11:42:48;7.82;;;6.82;;
24635;SDS011;12772;49.794;10.024;2024-03-02T11:47:00;7.63;;;6.85;;
24635;SDS011;12772;49.794;10.024;2024-03-02T11:51:02;7.72;;;7.03;;
24635;SDS011;12772;49.794;10.024;2024-03-02T11:55:05;6.68;;;6.05;;
24635;SDS011;12772;49.794;10.024;2024-03-02T11:59:10;6.82;;;5.93;;
24635;SDS011;12772;49.794;10.024;2024-03-02T12:03:13;6.43;;;5.82;;
24635;SDS011;12772;49.794;10.024;2024-03-02T12:07:19;6.18;;;5.68;;
24635;SDS011;12772;49.794;10.024;2024-03-02T12:11:22;6.20;;;5.70;;
24635;SDS011;12772;49.794;10.024;2024-03-02T12:15:25;6.05;;;5.40;;
24635;SDS011;12772;49.794;10.024;2024-03-02T12:19:29;6.80;;;6.15;;
24635;SDS011;12772;49.794;10.024;2024-03-02T12:23:31;6.72;;;5.97;;
24635;SDS011;12772;49.794;10.024;2024-03-02T12:27:33;6.22;;;5.72;;
24635;SDS011;12772;49.794;10.024;2024-03-02T12:31:36;6.60;;;6.00;;
24635;SDS011;12772;49.794;10.024;2024-03-02T12:35:38;7.03;;;6.25;;
24635;SDS011;12772;49.794;10.024;2024-03-02T12:39:44;5.93;;;5.45;;
24635;SDS011;12772;49.794;10.024;2024-03-02T12:43:47;6.50;;;5.50;;
24635;SDS011;12772;49.794;10.024;2024-03-02T12:47:50;6.35;;;5.70;;
24635;SDS011;12772;49.794;10.024;2024-03-02T12:51:53;5.97;;;5.38;;
24635;SDS011;12772;49.794;10.024;2024-03-02T12:55:56;7.07;;;6.38;;
24635;SDS011;12772;49.794;10.024;2024-03-02T13:04:01;7.60;;;6.90;;
24635;SDS011;12772;49.794;10.024;2024-03-02T13:08:04;6.90;;;6.30;;
24635;SDS011;12772;49.794;10.024;2024-03-02T13:12:07;5.75;;;5.25;;
24635;SDS011;12772;49.794;10.024;2024-03-02T13:16:11;5.15;;;4.75;;
24635;SDS011;12772;49.794;10.024;2024-03-02T13:20:14;5.47;;;4.97;;
24635;SDS011;12772;49.794;10.024;2024-03-02T13:24:18;6.45;;;5.90;;
24635;SDS011;12772;49.794;10.024;2024-03-02T13:28:21;5.80;;;5.30;;
24635;SDS011;12772;49.794;10.024;2024-03-02T13:32:24;5.75;;;5.25;;
24635;SDS011;12772;49.794;10.024;2024-03-02T13:36:27;5.90;;;5.40;;
24635;SDS011;12772;49.794;10.024;2024-03-02T13:40:29;5.13;;;4.72;;
24635;SDS011;12772;49.794;10.024;2024-03-02T13:44:36;5.18;;;4.78;;
24635;SDS011;12772;49.794;10.024;2024-03-02T13:48:39;4.88;;;4.47;;
24635;SDS011;12772;49.794;10.024;2024-03-02T13:52:41;4.45;;;4.05;;
24635;SDS011;12772;49.794;10.024;2024-03-02T13:56:43;4.53;;;4.20;;
24635;SDS011;12772;49.794;10.024;2024-03-02T14:00:47;4.25;;;3.85;;
24635;SDS011;12772;49.794;10.024;2024-03-02T14:04:49;3.33;;;3.03;;
24635;SDS011;12772;49.794;10.024;2024-03-02T14:08:51;3.17;;;2.97;;
24635;SDS011;12772;49.794;10.024;2024-03-02T14:12:53;3.25;;;2.97;;
24635;SDS011;12772;49.794;10.024;2024-03-02T14:16:56;3.30;;;3.00;;
24635;SDS011;12772;49.794;10.024;2024-03-02T14:21:00;3.97;;;3.03;;
24635;SDS011;12772;49.794;10.024;2024-03-02T14:25:04;6.78;;;4.15;;
24635;SDS011;12772;49.794;10.024;2024-03-02T14:29:06;3.70;;;3.40;;
24635;SDS011;12772;49.794;10.024;2024-03-02T14:33:09;3.65;;;3.35;;
24635;SDS011;12772;49.794;10.024;2024-03-02T14:37:12;3.53;;;3.22;;
24635;SDS011;12772;49.794;10.024;2024-03-02T14:41:15;3.20;;;2.88;;
24635;SDS011;12772;49.794;10.024;2024-03-02T14:45:17;3.30;;;3.00;;
24635;SDS011;12772;49.794;10.024;2024-03-02T14:49:19;3.40;;;2.90;;
24635;SDS011;12772;49.794;10.024;2024-03-02T14:53:21;3.83;;;2.75;;
24635;SDS011;12772;49.794;10.024;2024-03-02T14:57:23;3.55;;;3.25;;
24635;SDS011;12772;49.794;10.024;2024-03-02T15:01:25;3.40;;;3.10;;
24635;SDS011;12772;49.794;10.024;2024-03-02T15:05:27;3.10;;;2.80;;
24635;SDS011;12772;49.794;10.024;2024-03-02T15:09:29;3.22;;;3.00;;
24635;SDS011;12772;49.794;10.024;2024-03-02T15:13:31;4.60;;;3.05;;
24635;SDS011;12772;49.794;10.024;2024-03-02T15:17:34;3.85;;;3.38;;
24635;SDS011;12772;49.794;10.024;2024-03-02T15:21:36;5.15;;;3.60;;
24635;SDS011;12772;49.794;10.024;2024-03-02T15:25:38;3.53;;;3.20;;
24635;SDS011;12772;49.794;10.024;2024-03-02T15:29:40;3.78;;;3.47;;
24635;SDS011;12772;49.794;10.024;2024-03-02T15:33:42;4.13;;;3.83;;
24635;SDS011;12772;49.794;10.024;2024-03-02T15:37:44;3.85;;;3.53;;
24635;SDS011;12772;49.794;10.024;2024-03-02T15:41:46;6.53;;;5.30;;
24635;SDS011;12772;49.794;10.024;2024-03-02T15:45:48;4.60;;;4.15;;
24635;SDS011;12772;49.794;10.024;2024-03-02T15:49:50;5.63;;;5.13;;
24635;SDS011;12772;49.794;10.024;2024-03-02T15:53:52;7.90;;;7.10;;
24635;SDS011;12772;49.794;10.024;2024-03-02T15:57:54;7.60;;;6.80;;
24635;SDS011;12772;49.794;10.024;2024-03-02T16:01:57;9.07;;;8.18;;
24635;SDS011;12772;49.794;10.024;2024-03-02T16:05:59;9.18;;;8.23;;
24635;SDS011;12772;49.794;10.024;2024-03-02T16:10:01;9.35;;;7.97;;
24635;SDS011;12772;49.794;10.024;2024-03-02T16:14:04;7.22;;;6.50;;
24635;SDS011;12772;49.794;10.024;2024-03-02T16:18:06;7.65;;;6.90;;
24635;SDS011;12772;49.794;10.024;2024-03-02T16:22:08;7.05;;;6.03;;
24635;SDS011;12772;49.794;10.024;2024-03-02T16:26:11;6.20;;;5.60;;
24635;SDS011;12772;49.794;10.024;2024-03-02T16:30:13;6.25;;;5.65;;
24635;SDS011;12772;49.794;10.024;2024-03-02T16:34:15;7.82;;;6.63;;
24635;SDS011;12772;49.794;10.024;2024-03-02T16:38:17;7.72;;;7.03;;
24635;SDS011;12772;49.794;10.024;2024-03-02T16:42:19;9.80;;;7.38;;
24635;SDS011;12772;49.794;10.024;2024-03-02T16:46:21;9.05;;;8.25;;
24635;SDS011;12772;49.794;10.024;2024-03-02T16:50:23;12.07;;;10.82;;
24635;SDS011;12772;49.794;10.024;2024-03-02T16:54:25;11.23;;;10.13;;
24635;SDS011;12772;49.794;10.024;2024-03-02T16:58:27;11.38;;;10.18;;
24635;SDS011;12772;49.794;10.024;2024-03-02T17:02:29;11.20;;;9.13;;
24635;SDS011;12772;49.794;10.024;2024-03-02T17:06:31;10.35;;;9.25;;
24635;SDS011;12772;49.794;10.024;2024-03-02T17:10:33;9.93;;;9.02;;
24635;SDS011;12772;49.794;10.024;2024-03-02T17:14:35;9.02;;;8.00;;
24635;SDS011;12772;49.794;10.024;2024-03-02T17:18:37;8.27;;;7.47;;
24635;SDS011;12772;49.794;10.024;2024-03-02T17:22:39;9.88;;;8.88;;
24635;SDS011;12772;49.794;10.024;2024-03-02T17:26:41;9.85;;;8.95;;
24635;SDS011;12772;49.794;10.024;2024-03-02T17:30:43;9.93;;;8.93;;
24635;SDS011;12772;49.794;10.024;2024-03-02T17:34:45;10.07;;;9.07;;
24635;SDS011;12772;49.794;10.024;2024-03-02T17:38:47;10.30;;;9.27;;
24635;SDS011;12772;49.794;10.024;2024-03-02T17:42:49;9.55;;;8.55;;
24635;SDS011;12772;49.794;10.024;2024-03-02T17:46:51;9.43;;;8.50;;
24635;SDS011;12772;49.794;10.024;2024-03-02T17:50:53;13.50;;;9.85;;
24635;SDS011;12772;49.794;10.024;2024-03-02T17:54:55;10.45;;;9.35;;
24635;SDS011;12772;49.794;10.024;2024-03-02T17:58:57;10.05;;;8.95;;
24635;SDS011;12772;49.794;10.024;2024-03-02T18:02:59;11.48;;;10.15;;
24635;SDS011;12772;49.794;10.024;2024-03-02T18:07:01;14.13;;;10.68;;
24635;SDS011;12772;49.794;10.024;2024-03-02T18:11:03;13.20;;;11.02;;
24635;SDS011;12772;49.794;10.024;2024-03-02T18:15:07;14.60;;;11.85;;
24635;SDS011;12772;49.794;10.024;2024-03-02T18:19:10;14.50;;;12.35;;
24635;SDS011;12772;49.794;10.024;2024-03-02T18:23:12;14.65;;;12.13;;
24635;SDS011;12772;49.794;10.024;2024-03-02T18:27:14;12.43;;;10.95;;
24635;SDS011;12772;49.794;10.024;2024-03-02T18:31:16;15.07;;;11.98;;
24635;SDS011;12772;49.794;10.024;2024-03-02T18:35:22;14.45;;;12.05;;
24635;SDS011;12772;49.794;10.024;2024-03-02T18:39:24;14.82;;;12.73;;
24635;SDS011;12772;49.794;10.024;2024-03-02T18:43:26;15.25;;;12.07;;
24635;SDS011;12772;49.794;10.024;2024-03-02T18:47:28;14.35;;;11.63;;
24635;SDS011;12772;49.794;10.024;2024-03-02T18:51:30;16.05;;;13.10;;
24635;SDS011;12772;49.794;10.024;2024-03-02T18:55:31;13.77;;;11.60;;
24635;SDS011;12772;49.794;10.024;2024-03-02T18:59:33;14.85;;;11.82;;
24635;SDS011;12772;49.794;10.024;2024-03-02T19:03:35;17.35;;;12.68;;
24635;SDS011;12772;49.794;10.024;2024-03-02T19:07:37;16.55;;;12.20;;
24635;SDS011;12772;49.794;10.024;2024-03-02T19:11:39;16.08;;;13.48;;
24635;SDS011;12772;49.794;10.024;2024-03-02T19:15:41;17.55;;;12.25;;
24635;SDS011;12772;49.794;10.024;2024-03-02T19:19:43;18.90;;;14.30;;
24635;SDS011;12772;49.794;10.024;2024-03-02T19:23:45;19.73;;;15.25;;
24635;SDS011;12772;49.794;10.024;2024-03-02T19:27:47;16.98;;;14.27;;
24635;SDS011;12772;49.794;10.024;2024-03-02T19:31:49;19.10;;;15.00;;
24635;SDS011;12772;49.794;10.024;2024-03-02T19:35:51;21.85;;;16.10;;
24635;SDS011;12772;49.794;10.024;2024-03-02T19:39:53;20.45;;;14.93;;
24635;SDS011;12772;49.794;10.024;2024-03-02T19:43:55;15.50;;;13.30;;
24635;SDS011;12772;49.794;10.024;2024-03-02T19:47:57;18.10;;;13.68;;
24635;SDS011;12772;49.794;10.024;2024-03-02T19:51:59;19.67;;;14.95;;
24635;SDS011;12772;49.794;10.024;2024-03-02T19:56:01;18.63;;;14.77;;
24635;SDS011;12772;49.794;10.024;2024-03-02T20:00:04;18.52;;;14.38;;
24635;SDS011;12772;49.794;10.024;2024-03-02T20:04:07;18.90;;;14.15;;
24635;SDS011;12772;49.794;10.024;2024-03-02T20:08:10;19.98;;;15.38;;
24635;SDS011;12772;49.794;10.024;2024-03-02T20:12:12;20.17;;;13.70;;
24635;SDS011;12772;49.794;10.024;2024-03-02T20:16:14;16.60;;;13.48;;
24635;SDS011;12772;49.794;10.024;2024-03-02T20:20:17;18.30;;;14.05;;
24635;SDS011;12772;49.794;10.024;2024-03-02T20:24:19;16.70;;;14.25;;
24635;SDS011;12772;49.794;10.024;2024-03-02T20:28:22;18.45;;;14.88;;
24635;SDS011;12772;49.794;10.024;2024-03-02T20:32:24;17.80;;;14.48;;
24635;SDS011;12772;49.794;10.024;2024-03-02T20:36:26;16.25;;;13.23;;
24635;SDS011;12772;49.794;10.024;2024-03-02T20:40:28;17.45;;;14.95;;
24635;SDS011;12772;49.794;10.024;2024-03-02T20:44:30;17.92;;;14.57;;
24635;SDS011;12772;49.794;10.024;2024-03-02T20:48:32;17.33;;;14.77;;
24635;SDS011;12772;49.794;10.024;2024-03-02T20:52:34;16.90;;;14.30;;
24635;SDS011;12772;49.794;10.024;2024-03-02T20:56:36;16.67;;;12.13;;
24635;SDS011;12772;49.794;10.024;2024-03-02T21:00:41;17.20;;;14.00;;
24635;SDS011;12772;49.794;10.024;2024-03-02T21:04:43;16.52;;;12.88;;
24635;SDS011;12772;49.794;10.024;2024-03-02T21:08:46;16.90;;;12.73;;
24635;SDS011;12772;49.794;10.024;2024-03-02T21:12:48;14.85;;;12.05;;
24635;SDS011;12772;49.794;10.024;2024-03-02T21:16:50;14.55;;;12.80;;
24635;SDS011;12772;49.794;10.024;2024-03-02T21:20:52;16.48;;;14.05;;
24635;SDS011;12772;49.794;10.024;2024-03-02T21:24:54;14.40;;;12.68;;
24635;SDS011;12772;49.794;10.024;2024-03-02T21:29:01;16.63;;;13.35;;
24635;SDS011;12772;49.794;10.024;2024-03-02T21:33:04;14.68;;;12.52;;
24635;SDS011;12772;49.794;10.024;2024-03-02T21:37:07;16.30;;;13.07;;
24635;SDS011;12772;49.794;10.024;2024-03-02T21:41:09;15.75;;;12.90;;
24635;SDS011;12772;49.794;10.024;2024-03-02T21:45:11;16.15;;;12.93;;
24635;SDS011;12772;49.794;10.024;2024-03-02T21:49:13;15.63;;;11.95;;
24635;SDS011;12772;49.794;10.024;2024-03-02T21:53:15;15.10;;;11.77;;
24635;SDS011;12772;49.794;10.024;2024-03-02T21:57:17;14.98;;;11.50;;
24635;SDS011;12772;49.794;10.024;2024-03-02T22:01:20;15.73;;;12.73;;
24635;SDS011;12772;49.794;10.024;2024-03-02T22:05:22;14.05;;;11.57;;
24635;SDS011;12772;49.794;10.024;2024-03-02T22:09:24;15.75;;;12.23;;
24635;SDS011;12772;49.794;10.024;2024-03-02T22:13:26;16.80;;;12.82;;
24635;SDS011;12772;49.794;10.024;2024-03-02T22:17:28;13.27;;;11.75;;
24635;SDS011;12772;49.794;10.024;2024-03-02T22:21:30;17.60;;;13.77;;
24635;SDS011;12772;49.794;10.024;2024-03-02T22:25:32;15.63;;;12.95;;
24635;SDS011;12772;49.794;10.024;2024-03-02T22:29:34;16.85;;;13.18;;
24635;SDS011;12772;49.794;10.024;2024-03-02T22:33:37;16.85;;;12.98;;
24635;SDS011;12772;49.794;10.024;2024-03-02T22:37:39;16.08;;;13.38;;
24635;SDS011;12772;49.794;10.024;2024-03-02T22:41:41;17.85;;;13.73;;
24635;SDS011;12772;49.794;10.024;2024-03-02T22:45:43;13.93;;;12.38;;
24635;SDS011;12772;49.794;10.024;2024-03-02T22:49:45;16.73;;;14.05;;
24635;SDS011;12772;49.794;10.024;2024-03-02T22:53:47;17.42;;;14.35;;
24635;SDS011;12772;49.794;10.024;2024-03-02T22:57:49;13.30;;;11.73;;
24635;SDS011;12772;49.794;10.024;2024-03-02T23:01:51;14.05;;;11.68;;
24635;SDS011;12772;49.794;10.024;2024-03-02T23:05:53;15.45;;;12.45;;
24635;SDS011;12772;49.794;10.024;2024-03-02T23:09:55;17.13;;;11.90;;
24635;SDS011;12772;49.794;10.024;2024-03-02T23:13:57;14.57;;;12.88;;
24635;SDS011;12772;49.794;10.024;2024-03-02T23:17:59;14.18;;;11.82;;
24635;SDS011;12772;49.794;10.024;2024-03-02T23:22:01;15.50;;;12.45;;
24635;SDS011;12772;49.794;10.024;2024-03-02T23:26:05;13.38;;;11.38;;
24635;SDS011;12772;49.794;10.024;2024-03-02T23:30:08;13.98;;;11.77;;
24635;SDS011;12772;49.794;10.024;2024-03-02T23:34:10;14.77;;;11.90;;
24635;SDS011;12772;49.794;10.024;2024-03-02T23:38:13;14.63;;;11.35;;